createdAt,value
2022-08-09T00:00:28.562Z,1006.76
2022-08-09T00:01:40.304Z,1006.75
2022-08-09T00:02:28.515Z,1006.76
2022-08-09T00:04:00.859Z,1006.75
2022-08-09T00:04:35.068Z,1006.78
2022-08-09T00:06:15.659Z,1006.76
2022-08-09T00:06:28.471Z,1006.70
2022-08-09T00:07:29.826Z,1006.72
2022-08-09T00:08:32.058Z,1006.71
2022-08-09T00:09:27.445Z,1006.71
2022-08-09T00:10:27.449Z,1006.70
2022-08-09T00:11:27.837Z,1006.67
2022-08-09T00:12:29.840Z,1006.65
2022-08-09T00:13:28.397Z,1006.66
2022-08-09T00:14:36.364Z,1006.60
2022-08-09T00:15:35.609Z,1006.62
2022-08-09T00:16:38.389Z,1006.64
2022-08-09T00:18:10.937Z,1006.62
2022-08-09T00:18:28.972Z,1006.62
2022-08-09T00:19:27.686Z,1006.63
2022-08-09T00:20:27.337Z,1006.60
2022-08-09T00:21:27.310Z,1006.59
2022-08-09T00:22:35.103Z,1006.61
2022-08-09T00:23:57.792Z,1006.56
2022-08-09T00:24:28.270Z,1006.60
2022-08-09T00:25:32.998Z,1006.59
2022-08-09T00:26:29.837Z,1006.59
2022-08-09T00:27:27.741Z,1006.58
2022-08-09T00:28:28.226Z,1006.59
2022-08-09T00:29:39.613Z,1006.60
2022-08-09T00:30:28.224Z,1006.59
2022-08-09T00:31:56.884Z,1006.60
2022-08-09T00:32:28.182Z,1006.64
2022-08-09T00:33:32.622Z,1006.60
2022-08-09T00:34:28.160Z,1006.60
2022-08-09T00:35:29.674Z,1006.61
2022-08-09T00:36:30.630Z,1006.61
2022-08-09T00:37:27.136Z,1006.58
2022-08-09T00:38:28.116Z,1006.57
2022-08-09T00:40:13.899Z,1006.56
2022-08-09T00:40:30.953Z,1006.55
2022-08-09T00:44:10.713Z,1006.61
2022-08-09T00:44:10.787Z,1006.63
2022-08-09T00:44:14.160Z,1006.62
2022-08-09T00:44:28.733Z,1006.63
2022-08-09T00:45:27.044Z,1006.62
2022-08-09T00:46:55.515Z,1006.65
2022-08-09T00:47:28.018Z,1006.64
2022-08-09T00:48:28.004Z,1006.63
2022-08-09T00:49:28.129Z,1006.66
2022-08-09T00:50:27.287Z,1006.63
2022-08-09T00:51:26.994Z,1006.62
2022-08-09T00:52:30.192Z,1006.66
2022-08-09T00:53:26.952Z,1006.63
2022-08-09T00:54:34.920Z,1006.61
2022-08-09T00:56:03.969Z,1006.57
2022-08-09T00:56:27.916Z,1006.60
2022-08-09T00:57:34.007Z,1006.61
2022-08-09T00:58:27.933Z,1006.59
2022-08-09T00:59:40.401Z,1006.62
2022-08-09T01:00:27.877Z,1006.62
2022-08-09T01:01:32.184Z,1006.65
2022-08-09T01:02:27.878Z,1006.68
2022-08-09T01:03:28.327Z,1006.69
2022-08-09T01:04:27.470Z,1006.70
2022-08-09T01:05:53.272Z,1006.69
2022-08-09T01:06:53.449Z,1006.75
2022-08-09T01:07:37.899Z,1006.71
2022-08-09T01:08:27.782Z,1006.75
2022-08-09T01:09:26.773Z,1006.76
2022-08-09T01:10:29.012Z,1006.72
2022-08-09T01:11:26.749Z,1006.76
2022-08-09T01:12:26.762Z,1006.75
2022-08-09T01:13:31.197Z,1006.74
2022-08-09T01:14:27.716Z,1006.76
2022-08-09T01:15:26.704Z,1006.79
2022-08-09T01:16:26.697Z,1006.80
2022-08-09T01:17:30.521Z,1006.79
2022-08-09T01:18:30.014Z,1006.75
2022-08-09T01:19:42.999Z,1006.76
2022-08-09T01:20:27.669Z,1006.77
2022-08-09T01:21:26.657Z,1006.71
2022-08-09T01:22:27.626Z,1006.73
2022-08-09T01:24:00.681Z,1006.71
2022-08-09T01:24:27.603Z,1006.71
2022-08-09T01:25:26.592Z,1006.72
2022-08-09T01:26:26.604Z,1006.70
2022-08-09T01:27:26.573Z,1006.68
2022-08-09T01:28:26.560Z,1006.74
2022-08-09T01:29:28.123Z,1006.72
2022-08-09T01:30:33.590Z,1006.74
2022-08-09T01:32:29.167Z,1006.81
2022-08-09T01:32:31.750Z,1006.81
2022-08-09T01:33:27.500Z,1006.81
2022-08-09T01:34:26.493Z,1006.79
2022-08-09T01:35:37.463Z,1006.83
2022-08-09T01:36:27.467Z,1006.84
2022-08-09T01:38:06.427Z,1006.81
2022-08-09T01:38:27.473Z,1006.83
2022-08-09T01:39:26.491Z,1006.82
2022-08-09T01:40:28.612Z,1006.81
2022-08-09T01:41:26.419Z,1006.85
2022-08-09T01:42:26.402Z,1006.86
2022-08-09T01:43:26.426Z,1006.86
2022-08-09T01:44:26.378Z,1006.88
2022-08-09T01:45:26.371Z,1006.85
2022-08-09T01:46:27.086Z,1006.89
2022-08-09T01:47:26.351Z,1006.85
2022-08-09T01:48:29.769Z,1006.90
2022-08-09T01:49:26.325Z,1006.88
2022-08-09T01:50:30.045Z,1006.85
2022-08-09T01:51:27.306Z,1006.85
2022-08-09T01:52:27.288Z,1006.86
2022-08-09T01:53:29.347Z,1006.87
2022-08-09T01:54:27.515Z,1006.88
2022-08-09T01:55:26.259Z,1006.86
2022-08-09T01:56:26.269Z,1006.89
2022-08-09T01:57:26.234Z,1006.89
2022-08-09T01:58:26.222Z,1006.89
2022-08-09T01:59:26.234Z,1006.89
2022-08-09T02:00:35.819Z,1006.90
2022-08-09T02:01:30.510Z,1006.89
2022-08-09T02:02:29.953Z,1006.86
2022-08-09T02:03:26.168Z,1006.82
2022-08-09T02:04:26.178Z,1006.80
2022-08-09T02:05:37.781Z,1006.82
2022-08-09T02:06:27.132Z,1006.78
2022-08-09T02:08:39.897Z,1006.81
2022-08-09T02:08:41.354Z,1006.80
2022-08-09T02:09:27.100Z,1006.79
2022-08-09T02:10:29.875Z,1006.78
2022-08-09T02:11:42.622Z,1006.79
2022-08-09T02:12:27.130Z,1006.76
2022-08-09T02:13:37.669Z,1006.79
2022-08-09T02:14:27.548Z,1006.77
2022-08-09T02:15:26.935Z,1006.81
2022-08-09T02:16:33.857Z,1006.80
2022-08-09T02:17:59.813Z,1006.80
2022-08-09T02:18:26.997Z,1006.83
2022-08-09T02:19:38.711Z,1006.81
2022-08-09T02:20:32.769Z,1006.82
2022-08-09T02:21:27.540Z,1006.83
2022-08-09T02:22:31.703Z,1006.80
2022-08-09T02:23:26.964Z,1006.84
2022-08-09T02:24:26.991Z,1006.84
2022-08-09T02:25:25.921Z,1006.82
2022-08-09T02:26:27.287Z,1006.87
2022-08-09T02:27:43.162Z,1006.86
2022-08-09T02:28:26.911Z,1006.91
2022-08-09T02:29:25.900Z,1006.90
2022-08-09T02:30:26.351Z,1006.91
2022-08-09T02:31:25.861Z,1006.88
2022-08-09T02:32:25.864Z,1006.89
2022-08-09T02:33:58.761Z,1006.88
2022-08-09T02:34:40.542Z,1006.89
2022-08-09T02:36:02.072Z,1006.84
2022-08-09T02:36:26.795Z,1006.89
2022-08-09T02:37:31.720Z,1006.87
2022-08-09T02:38:28.845Z,1006.89
2022-08-09T02:39:34.040Z,1006.88
2022-08-09T02:40:30.357Z,1006.89
2022-08-09T02:41:25.745Z,1006.86
2022-08-09T02:42:25.752Z,1006.85
2022-08-09T02:43:25.741Z,1006.87
2022-08-09T02:44:30.250Z,1006.85
2022-08-09T02:45:28.694Z,1006.87
2022-08-09T02:46:25.697Z,1006.84
2022-08-09T02:47:25.676Z,1006.88
2022-08-09T02:48:30.825Z,1006.86
2022-08-09T02:49:27.231Z,1006.91
2022-08-09T02:50:26.993Z,1006.90
2022-08-09T02:51:26.569Z,1006.90
2022-08-09T02:52:25.620Z,1006.93
2022-08-09T02:53:26.292Z,1006.91
2022-08-09T02:54:25.595Z,1006.94
2022-08-09T02:55:46.835Z,1006.90
2022-08-09T02:56:27.941Z,1006.89
2022-08-09T02:57:25.606Z,1006.86
2022-08-09T02:58:35.827Z,1006.91
2022-08-09T02:59:36.169Z,1006.88
2022-08-09T03:00:26.551Z,1006.90
2022-08-09T03:01:29.518Z,1006.90
2022-08-09T03:02:26.526Z,1006.90
2022-08-09T03:04:12.842Z,1006.89
2022-08-09T03:04:29.557Z,1006.90
2022-08-09T03:05:25.479Z,1006.90
2022-08-09T03:06:27.493Z,1006.95
2022-08-09T03:07:25.451Z,1006.94
2022-08-09T03:08:25.441Z,1006.96
2022-08-09T03:09:25.435Z,1006.94
2022-08-09T03:10:26.416Z,1006.91
2022-08-09T03:11:29.894Z,1006.93
2022-08-09T03:12:26.397Z,1006.95
2022-08-09T03:13:25.386Z,1006.93
2022-08-09T03:14:28.256Z,1006.97
2022-08-09T03:15:25.371Z,1006.95
2022-08-09T03:16:26.348Z,1006.95
2022-08-09T03:17:27.043Z,1006.95
2022-08-09T03:18:31.083Z,1006.95
2022-08-09T03:19:57.775Z,1006.96
2022-08-09T03:20:26.302Z,1006.94
2022-08-09T03:21:25.870Z,1006.94
2022-08-09T03:22:30.926Z,1006.96
2022-08-09T03:23:26.269Z,1006.91
2022-08-09T03:24:25.305Z,1006.92
2022-08-09T03:25:59.259Z,1006.95
2022-08-09T03:26:31.930Z,1006.91
2022-08-09T03:27:26.247Z,1006.91
2022-08-09T03:28:25.216Z,1006.95
2022-08-09T03:29:25.205Z,1006.97
2022-08-09T03:30:29.991Z,1006.96
2022-08-09T03:31:26.185Z,1006.97
2022-08-09T03:32:25.325Z,1006.96
2022-08-09T03:33:25.161Z,1007.00
2022-08-09T03:34:25.151Z,1007.01
2022-08-09T03:36:11.629Z,1007.02
2022-08-09T03:36:27.564Z,1007.05
2022-08-09T03:37:56.706Z,1007.05
2022-08-09T03:38:28.864Z,1007.08
2022-08-09T03:39:28.673Z,1007.04
2022-08-09T03:40:31.076Z,1007.10
2022-08-09T03:41:29.802Z,1007.06
2022-08-09T03:42:26.270Z,1007.06
2022-08-09T03:43:25.053Z,1007.07
2022-08-09T03:44:27.744Z,1007.09
2022-08-09T03:46:03.858Z,1007.08
2022-08-09T03:46:29.272Z,1007.08
2022-08-09T03:47:25.007Z,1007.10
2022-08-09T03:48:30.948Z,1007.08
2022-08-09T03:49:25.982Z,1007.07
2022-08-09T03:50:28.036Z,1007.11
2022-08-09T03:51:54.123Z,1007.05
2022-08-09T03:52:25.948Z,1007.08
2022-08-09T03:53:32.227Z,1007.05
2022-08-09T03:54:29.354Z,1007.07
2022-08-09T03:55:24.915Z,1007.12
2022-08-09T03:56:24.904Z,1007.07
2022-08-09T03:57:24.896Z,1007.05
2022-08-09T03:58:24.881Z,1007.06
2022-08-09T03:59:42.849Z,1007.09
2022-08-09T04:00:25.934Z,1007.09
2022-08-09T04:01:25.094Z,1007.09
2022-08-09T04:02:26.953Z,1007.12
2022-08-09T04:03:45.886Z,1007.14
2022-08-09T04:04:25.812Z,1007.13
2022-08-09T04:05:27.547Z,1007.13
2022-08-09T04:06:24.824Z,1007.14
2022-08-09T04:07:33.773Z,1007.14
2022-08-09T04:08:28.929Z,1007.15
2022-08-09T04:09:47.823Z,1007.18
2022-08-09T04:10:29.117Z,1007.16
2022-08-09T04:11:25.033Z,1007.19
2022-08-09T04:12:40.313Z,1007.21
2022-08-09T04:13:45.123Z,1007.20
2022-08-09T04:14:52.891Z,1007.19
2022-08-09T04:15:40.416Z,1007.21
2022-08-09T04:16:25.778Z,1007.28
2022-08-09T04:17:24.668Z,1007.22
2022-08-09T04:18:24.868Z,1007.24
2022-08-09T04:19:42.600Z,1007.23
2022-08-09T04:20:25.917Z,1007.25
2022-08-09T04:21:24.644Z,1007.23
2022-08-09T04:22:24.659Z,1007.22
2022-08-09T04:23:25.863Z,1007.24
2022-08-09T04:24:24.590Z,1007.26
2022-08-09T04:25:24.582Z,1007.27
2022-08-09T04:26:24.824Z,1007.23
2022-08-09T04:27:25.566Z,1007.27
2022-08-09T04:28:33.525Z,1007.30
2022-08-09T04:29:25.536Z,1007.31
2022-08-09T04:30:26.247Z,1007.32
2022-08-09T04:31:37.347Z,1007.33
2022-08-09T04:32:37.090Z,1007.34
2022-08-09T04:33:28.699Z,1007.32
2022-08-09T04:34:31.818Z,1007.35
2022-08-09T04:35:25.468Z,1007.36
2022-08-09T04:36:24.692Z,1007.33
2022-08-09T04:37:24.465Z,1007.36
2022-08-09T04:38:25.430Z,1007.32
2022-08-09T04:39:24.515Z,1007.35
2022-08-09T04:40:36.226Z,1007.35
2022-08-09T04:41:33.260Z,1007.34
2022-08-09T04:42:25.414Z,1007.33
2022-08-09T04:43:25.352Z,1007.34
2022-08-09T04:44:24.370Z,1007.37
2022-08-09T04:45:24.359Z,1007.38
2022-08-09T04:46:36.659Z,1007.36
2022-08-09T04:47:25.340Z,1007.37
2022-08-09T04:48:33.418Z,1007.36
2022-08-09T04:49:40.549Z,1007.34
2022-08-09T04:50:25.302Z,1007.35
2022-08-09T04:51:25.287Z,1007.37
2022-08-09T04:52:26.631Z,1007.40
2022-08-09T04:53:24.270Z,1007.37
2022-08-09T04:54:24.277Z,1007.37
2022-08-09T04:55:24.247Z,1007.40
2022-08-09T04:56:26.110Z,1007.41
2022-08-09T04:57:25.080Z,1007.42
2022-08-09T04:58:24.211Z,1007.40
2022-08-09T04:59:24.204Z,1007.39
2022-08-09T05:00:25.185Z,1007.37
2022-08-09T05:01:25.204Z,1007.41
2022-08-09T05:02:24.196Z,1007.41
2022-08-09T05:03:41.034Z,1007.43
2022-08-09T05:04:30.780Z,1007.43
2022-08-09T05:05:32.253Z,1007.45
2022-08-09T05:06:27.874Z,1007.46
2022-08-09T05:07:24.136Z,1007.47
2022-08-09T05:08:24.102Z,1007.49
2022-08-09T05:09:24.090Z,1007.52
2022-08-09T05:10:24.077Z,1007.50
2022-08-09T05:11:24.066Z,1007.54
2022-08-09T05:12:25.121Z,1007.53
2022-08-09T05:13:24.046Z,1007.55
2022-08-09T05:14:24.033Z,1007.54
2022-08-09T05:15:38.686Z,1007.54
2022-08-09T05:16:31.724Z,1007.58
2022-08-09T05:18:37.737Z,1007.60
2022-08-09T05:18:38.910Z,1007.60
2022-08-09T05:19:26.160Z,1007.61
2022-08-09T05:20:24.966Z,1007.64
2022-08-09T05:21:30.037Z,1007.61
2022-08-09T05:22:35.971Z,1007.63
2022-08-09T05:23:54.697Z,1007.65
2022-08-09T05:24:24.927Z,1007.62
2022-08-09T05:25:23.915Z,1007.66
2022-08-09T05:26:36.134Z,1007.67
2022-08-09T05:27:24.888Z,1007.65
2022-08-09T05:28:24.046Z,1007.64
2022-08-09T05:29:24.226Z,1007.66
2022-08-09T05:30:24.853Z,1007.65
2022-08-09T05:31:44.979Z,1007.69
2022-08-09T05:32:24.914Z,1007.69
2022-08-09T05:33:26.394Z,1007.70
2022-08-09T05:34:29.995Z,1007.73
2022-08-09T05:35:24.798Z,1007.71
2022-08-09T05:36:26.424Z,1007.74
2022-08-09T05:37:24.779Z,1007.75
2022-08-09T05:38:23.790Z,1007.72
2022-08-09T05:39:28.862Z,1007.77
2022-08-09T05:40:24.744Z,1007.77
2022-08-09T05:41:23.730Z,1007.77
2022-08-09T05:42:28.688Z,1007.77
2022-08-09T05:43:24.731Z,1007.82
2022-08-09T05:44:28.888Z,1007.78
2022-08-09T05:45:24.832Z,1007.81
2022-08-09T05:46:23.674Z,1007.77
2022-08-09T05:47:23.788Z,1007.78
2022-08-09T05:48:32.736Z,1007.81
2022-08-09T05:50:23.497Z,1007.81
2022-08-09T05:50:50.812Z,1007.78
2022-08-09T05:51:42.963Z,1007.77
2022-08-09T05:52:30.761Z,1007.77
2022-08-09T05:53:33.313Z,1007.83
2022-08-09T05:54:24.588Z,1007.80
2022-08-09T05:55:24.278Z,1007.78
2022-08-09T05:56:25.948Z,1007.79
2022-08-09T05:57:25.042Z,1007.83
2022-08-09T05:58:24.543Z,1007.88
2022-08-09T05:59:23.531Z,1007.88
2022-08-09T06:00:23.552Z,1007.85
2022-08-09T06:01:23.513Z,1007.83
2022-08-09T06:02:23.579Z,1007.83
2022-08-09T06:03:23.533Z,1007.88
2022-08-09T06:04:23.743Z,1007.90
2022-08-09T06:05:50.159Z,1007.90
2022-08-09T06:06:24.453Z,1007.84
2022-08-09T06:07:23.463Z,1007.85
2022-08-09T06:08:24.460Z,1007.88
2022-08-09T06:09:53.852Z,1007.88
2022-08-09T06:10:24.409Z,1007.85
2022-08-09T06:11:40.628Z,1007.84
2022-08-09T06:12:26.350Z,1007.90
2022-08-09T06:13:23.375Z,1007.90
2022-08-09T06:14:23.364Z,1007.90
2022-08-09T06:15:23.375Z,1007.90
2022-08-09T06:16:23.349Z,1007.90
2022-08-09T06:17:23.353Z,1007.92
2022-08-09T06:18:24.985Z,1007.99
2022-08-09T06:19:23.310Z,1007.93
2022-08-09T06:20:23.298Z,1007.97
2022-08-09T06:21:23.286Z,1007.94
2022-08-09T06:22:29.053Z,1007.95
2022-08-09T06:23:24.262Z,1007.97
2022-08-09T06:24:24.254Z,1007.94
2022-08-09T06:25:23.246Z,1007.94
2022-08-09T06:26:28.448Z,1007.92
2022-08-09T06:27:24.242Z,1007.88
2022-08-09T06:28:31.868Z,1007.90
2022-08-09T06:29:24.193Z,1007.89
2022-08-09T06:30:23.193Z,1007.93
2022-08-09T06:31:31.477Z,1007.92
2022-08-09T06:33:00.559Z,1007.93
2022-08-09T06:33:40.684Z,1007.96
2022-08-09T06:34:26.359Z,1007.92
2022-08-09T06:35:55.849Z,1007.95
2022-08-09T06:36:27.296Z,1007.97
2022-08-09T06:37:24.106Z,1007.97
2022-08-09T06:38:31.989Z,1007.99
2022-08-09T06:39:24.125Z,1008.00
2022-08-09T06:40:24.643Z,1007.96
2022-08-09T06:41:23.067Z,1007.96
2022-08-09T06:42:24.335Z,1007.96
2022-08-09T06:43:23.043Z,1007.99
2022-08-09T06:44:23.056Z,1007.99
2022-08-09T06:46:06.519Z,1007.98
2022-08-09T06:46:39.821Z,1007.99
2022-08-09T06:47:24.091Z,1007.98
2022-08-09T06:48:26.124Z,1008.02
2022-08-09T06:49:29.341Z,1008.02
2022-08-09T06:50:24.028Z,1008.01
2022-08-09T06:51:22.954Z,1008.01
2022-08-09T06:52:23.644Z,1008.03
2022-08-09T06:53:22.952Z,1008.04
2022-08-09T06:54:22.951Z,1008.04
2022-08-09T06:55:23.980Z,1008.00
2022-08-09T06:56:30.527Z,1008.01
2022-08-09T06:57:25.812Z,1007.96
2022-08-09T07:00:46.630Z,1008.00
2022-08-09T07:00:48.873Z,1007.98
2022-08-09T07:00:52.037Z,1007.98
2022-08-09T07:01:24.115Z,1007.96
2022-08-09T07:02:31.100Z,1007.96
2022-08-09T07:03:27.906Z,1007.99
2022-08-09T07:04:22.814Z,1007.97
2022-08-09T07:05:23.094Z,1007.94
2022-08-09T07:06:22.791Z,1007.98
2022-08-09T07:07:58.714Z,1007.97
2022-08-09T07:08:24.759Z,1007.96
2022-08-09T07:09:55.369Z,1008.01
2022-08-09T07:10:29.656Z,1007.98
2022-08-09T07:11:25.565Z,1008.03
2022-08-09T07:12:22.722Z,1008.00
2022-08-09T07:13:28.160Z,1007.98
2022-08-09T07:14:26.377Z,1007.96
2022-08-09T07:15:53.967Z,1007.97
2022-08-09T07:16:43.462Z,1007.99
2022-08-09T07:17:23.662Z,1007.98
2022-08-09T07:18:22.676Z,1008.00
2022-08-09T07:19:23.544Z,1008.04
2022-08-09T07:20:22.637Z,1008.00
2022-08-09T07:21:22.643Z,1008.02
2022-08-09T07:22:34.879Z,1008.02
2022-08-09T07:23:23.621Z,1007.99
2022-08-09T07:24:22.595Z,1008.01
2022-08-09T07:25:23.577Z,1007.96
2022-08-09T07:26:22.568Z,1008.02
2022-08-09T07:27:26.783Z,1007.99
2022-08-09T07:28:26.178Z,1008.01
2022-08-09T07:29:22.534Z,1008.02
2022-08-09T07:30:24.358Z,1008.01
2022-08-09T07:31:24.024Z,1008.00
2022-08-09T07:32:22.986Z,1007.99
2022-08-09T07:33:23.491Z,1008.00
2022-08-09T07:34:22.508Z,1008.01
2022-08-09T07:35:22.571Z,1007.97
2022-08-09T07:36:22.458Z,1007.97
2022-08-09T07:37:22.453Z,1007.94
2022-08-09T07:38:23.171Z,1007.92
2022-08-09T07:39:41.460Z,1007.91
2022-08-09T07:40:26.841Z,1007.89
2022-08-09T07:41:22.401Z,1007.92
2022-08-09T07:42:22.392Z,1007.91
2022-08-09T07:43:29.017Z,1007.94
2022-08-09T07:44:23.990Z,1007.91
2022-08-09T07:45:37.042Z,1007.88
2022-08-09T07:46:23.347Z,1007.88
2022-08-09T07:47:23.193Z,1007.89
2022-08-09T07:48:30.103Z,1007.89
2022-08-09T07:49:23.380Z,1007.82
2022-08-09T07:50:34.748Z,1007.82
2022-08-09T07:52:03.550Z,1007.88
2022-08-09T07:52:24.148Z,1007.87
2022-08-09T07:54:01.571Z,1007.88
2022-08-09T07:54:27.982Z,1007.88
2022-08-09T07:55:23.246Z,1007.93
2022-08-09T07:56:26.841Z,1007.94
2022-08-09T07:57:22.230Z,1007.91
2022-08-09T07:58:26.321Z,1007.91
2022-08-09T07:59:25.181Z,1007.92
2022-08-09T08:00:35.869Z,1007.88
2022-08-09T08:01:25.439Z,1007.88
2022-08-09T08:02:23.228Z,1007.90
2022-08-09T08:03:22.160Z,1007.83
2022-08-09T08:04:31.830Z,1007.83
2022-08-09T08:05:23.158Z,1007.88
2022-08-09T08:06:22.131Z,1007.86
2022-08-09T08:08:45.215Z,1007.89
2022-08-09T08:09:00.631Z,1007.91
2022-08-09T08:09:39.783Z,1007.94
2022-08-09T08:10:23.118Z,1007.89
2022-08-09T08:12:10.670Z,1007.94
2022-08-09T08:12:24.899Z,1007.94
2022-08-09T08:13:23.073Z,1007.95
2022-08-09T08:14:24.190Z,1007.98
2022-08-09T08:15:23.950Z,1007.98
2022-08-09T08:16:29.511Z,1008.00
2022-08-09T08:17:35.081Z,1007.98
2022-08-09T08:18:22.998Z,1007.97
2022-08-09T08:19:22.010Z,1008.00
2022-08-09T08:20:29.420Z,1007.96
2022-08-09T08:21:23.012Z,1007.98
2022-08-09T08:22:24.097Z,1007.99
2022-08-09T08:23:22.941Z,1007.99
2022-08-09T08:24:21.956Z,1007.97
2022-08-09T08:25:21.924Z,1007.98
2022-08-09T08:26:26.726Z,1007.97
2022-08-09T08:27:22.937Z,1007.94
2022-08-09T08:28:26.147Z,1007.94
2022-08-09T08:29:27.482Z,1007.98
2022-08-09T08:30:22.869Z,1007.93
2022-08-09T08:31:21.882Z,1007.94
2022-08-09T08:32:28.885Z,1007.94
2022-08-09T08:33:23.775Z,1007.92
2022-08-09T08:34:25.447Z,1007.96
2022-08-09T08:35:22.162Z,1007.93
2022-08-09T08:36:28.310Z,1007.97
2022-08-09T08:37:22.796Z,1007.95
2022-08-09T08:38:21.786Z,1007.91
2022-08-09T08:39:22.033Z,1007.91
2022-08-09T08:40:21.782Z,1007.90
2022-08-09T08:41:21.751Z,1007.94
2022-08-09T08:42:31.680Z,1007.94
2022-08-09T08:43:23.172Z,1007.92
2022-08-09T08:44:27.237Z,1007.90
2022-08-09T08:45:37.732Z,1007.89
2022-08-09T08:46:32.908Z,1007.84
2022-08-09T08:47:22.709Z,1007.86
2022-08-09T08:48:21.678Z,1007.86
2022-08-09T08:49:22.561Z,1007.87
2022-08-09T08:50:22.656Z,1007.83
2022-08-09T08:51:22.483Z,1007.76
2022-08-09T08:52:57.566Z,1007.78
2022-08-09T08:53:22.622Z,1007.80
2022-08-09T08:54:28.124Z,1007.81
2022-08-09T08:55:23.329Z,1007.74
2022-08-09T08:56:28.067Z,1007.76
2022-08-09T08:57:22.585Z,1007.72
2022-08-09T08:58:27.141Z,1007.76
2022-08-09T08:59:22.556Z,1007.72
2022-08-09T09:00:27.928Z,1007.72
2022-08-09T09:01:24.961Z,1007.77
2022-08-09T09:02:31.397Z,1007.73
2022-08-09T09:03:22.795Z,1007.75
2022-08-09T09:04:27.024Z,1007.75
2022-08-09T09:05:22.689Z,1007.71
2022-08-09T09:06:22.485Z,1007.72
2022-08-09T09:07:21.494Z,1007.74
2022-08-09T09:08:30.224Z,1007.78
2022-08-09T09:09:50.235Z,1007.74
2022-08-09T09:10:22.438Z,1007.78
2022-08-09T09:11:21.430Z,1007.75
2022-08-09T09:12:21.788Z,1007.74
2022-08-09T09:13:21.427Z,1007.78
2022-08-09T09:14:21.398Z,1007.74
2022-08-09T09:15:27.913Z,1007.73
2022-08-09T09:16:31.259Z,1007.73
2022-08-09T09:17:22.364Z,1007.69
2022-08-09T09:18:21.357Z,1007.71
2022-08-09T09:19:37.789Z,1007.72
2022-08-09T09:20:22.353Z,1007.71
2022-08-09T09:21:25.991Z,1007.70
2022-08-09T09:22:28.688Z,1007.67
2022-08-09T09:23:22.298Z,1007.67
2022-08-09T09:24:22.288Z,1007.69
2022-08-09T09:26:01.238Z,1007.74
2022-08-09T09:26:22.275Z,1007.65
2022-08-09T09:28:03.018Z,1007.66
2022-08-09T09:28:39.282Z,1007.63
2022-08-09T09:29:22.236Z,1007.64
2022-08-09T09:30:39.987Z,1007.63
2022-08-09T09:32:03.448Z,1007.67
2022-08-09T09:32:34.373Z,1007.70
2022-08-09T09:33:23.780Z,1007.70
2022-08-09T09:34:21.185Z,1007.71
2022-08-09T09:35:21.200Z,1007.71
2022-08-09T09:36:22.055Z,1007.70
2022-08-09T09:37:21.151Z,1007.75
2022-08-09T09:38:27.812Z,1007.67
2022-08-09T09:39:22.226Z,1007.63
2022-08-09T09:40:21.195Z,1007.64
2022-08-09T09:41:21.127Z,1007.67
2022-08-09T09:42:21.104Z,1007.68
2022-08-09T09:43:21.089Z,1007.66
2022-08-09T09:44:25.923Z,1007.67
2022-08-09T09:45:25.867Z,1007.63
2022-08-09T09:47:22.044Z,1007.68
2022-08-09T09:48:21.036Z,1007.64
2022-08-09T09:49:31.642Z,1007.62
2022-08-09T09:50:23.200Z,1007.65
2022-08-09T09:51:38.074Z,1007.62
2022-08-09T09:52:36.240Z,1007.68
2022-08-09T09:53:43.863Z,1007.72
2022-08-09T09:54:22.001Z,1007.74
2022-08-09T09:55:27.953Z,1007.75
2022-08-09T09:56:31.566Z,1007.71
2022-08-09T09:58:00.961Z,1007.64
2022-08-09T09:58:21.933Z,1007.68
2022-08-09T09:59:20.918Z,1007.70
2022-08-09T10:00:22.049Z,1007.66
2022-08-09T10:01:31.478Z,1007.67
2022-08-09T10:02:21.897Z,1007.66
2022-08-09T10:03:21.122Z,1007.70
2022-08-09T10:04:23.027Z,1007.66
2022-08-09T10:05:21.875Z,1007.67
2022-08-09T10:06:21.865Z,1007.69
2022-08-09T10:07:20.837Z,1007.66
2022-08-09T10:08:27.698Z,1007.68
2022-08-09T10:09:23.848Z,1007.66
2022-08-09T10:10:20.801Z,1007.66
2022-08-09T10:12:00.743Z,1007.64
2022-08-09T10:12:28.068Z,1007.66
2022-08-09T10:13:24.814Z,1007.58
2022-08-09T10:14:27.495Z,1007.57
2022-08-09T10:15:50.677Z,1007.64
2022-08-09T10:16:57.649Z,1007.62
2022-08-09T10:17:39.294Z,1007.68
2022-08-09T10:18:21.717Z,1007.66
2022-08-09T10:19:20.730Z,1007.69
2022-08-09T10:20:31.975Z,1007.68
2022-08-09T10:21:21.687Z,1007.60
2022-08-09T10:22:29.324Z,1007.66
2022-08-09T10:23:21.967Z,1007.62
2022-08-09T10:24:25.667Z,1007.62
2022-08-09T10:25:21.749Z,1007.59
2022-08-09T10:26:20.635Z,1007.63
2022-08-09T10:27:24.989Z,1007.61
2022-08-09T10:28:21.666Z,1007.59
2022-08-09T10:29:32.781Z,1007.61
2022-08-09T10:32:38.697Z,1007.54
2022-08-09T10:34:07.655Z,1007.51
2022-08-09T10:34:33.560Z,1007.47
2022-08-09T10:35:21.537Z,1007.55
2022-08-09T10:36:20.565Z,1007.51
2022-08-09T10:37:20.519Z,1007.49
2022-08-09T10:38:34.456Z,1007.47
2022-08-09T10:39:21.567Z,1007.51
2022-08-09T10:40:33.322Z,1007.44
2022-08-09T10:41:21.474Z,1007.51
2022-08-09T10:42:20.468Z,1007.52
2022-08-09T10:43:21.451Z,1007.47
2022-08-09T10:44:21.948Z,1007.51
2022-08-09T10:45:20.543Z,1007.53
2022-08-09T10:46:25.191Z,1007.51
2022-08-09T10:48:12.266Z,1007.53
2022-08-09T10:48:30.602Z,1007.52
2022-08-09T10:49:21.426Z,1007.55
2022-08-09T10:50:21.035Z,1007.50
2022-08-09T10:51:21.371Z,1007.52
2022-08-09T10:52:21.358Z,1007.50
2022-08-09T10:53:21.200Z,1007.43
2022-08-09T10:54:20.338Z,1007.45
2022-08-09T10:55:20.346Z,1007.46
2022-08-09T10:56:23.016Z,1007.49
2022-08-09T10:57:20.330Z,1007.49
2022-08-09T10:58:25.441Z,1007.49
2022-08-09T10:59:21.286Z,1007.52
2022-08-09T11:00:20.271Z,1007.55
2022-08-09T11:03:11.855Z,1007.62
2022-08-09T11:03:15.166Z,1007.61
2022-08-09T11:03:50.263Z,1007.59
2022-08-09T11:04:31.756Z,1007.56
2022-08-09T11:05:25.043Z,1007.58
2022-08-09T11:06:22.970Z,1007.56
2022-08-09T11:07:20.200Z,1007.53
2022-08-09T11:08:33.323Z,1007.55
2022-08-09T11:09:21.180Z,1007.55
2022-08-09T11:10:20.336Z,1007.55
2022-08-09T11:11:21.350Z,1007.55
2022-08-09T11:12:20.342Z,1007.59
2022-08-09T11:13:50.660Z,1007.56
2022-08-09T11:14:28.458Z,1007.66
2022-08-09T11:15:23.775Z,1007.54
2022-08-09T11:16:35.108Z,1007.54
2022-08-09T11:17:21.096Z,1007.55
2022-08-09T11:18:20.082Z,1007.51
2022-08-09T11:19:20.074Z,1007.47
2022-08-09T11:20:23.022Z,1007.41
2022-08-09T11:21:20.094Z,1007.45
2022-08-09T11:22:25.670Z,1007.50
2022-08-09T11:23:23.991Z,1007.47
2022-08-09T11:24:21.020Z,1007.50
2022-08-09T11:25:25.797Z,1007.48
2022-08-09T11:26:21.048Z,1007.45
2022-08-09T11:27:52.901Z,1007.53
2022-08-09T11:28:27.715Z,1007.52
2022-08-09T11:30:06.265Z,1007.54
2022-08-09T11:30:33.229Z,1007.58
2022-08-09T11:31:33.916Z,1007.51
2022-08-09T11:32:20.934Z,1007.50
2022-08-09T11:33:19.925Z,1007.47
2022-08-09T11:34:19.917Z,1007.41
2022-08-09T11:35:23.821Z,1007.45
2022-08-09T11:36:30.388Z,1007.48
2022-08-09T11:37:20.899Z,1007.47
2022-08-09T11:38:22.128Z,1007.43
2022-08-09T11:39:19.911Z,1007.42
2022-08-09T11:40:19.853Z,1007.41
2022-08-09T11:41:19.870Z,1007.39
2022-08-09T11:42:19.827Z,1007.41
2022-08-09T11:43:19.847Z,1007.40
2022-08-09T11:44:19.814Z,1007.37
2022-08-09T11:45:19.822Z,1007.37
2022-08-09T11:46:32.814Z,1007.46
2022-08-09T11:47:20.784Z,1007.39
2022-08-09T11:48:25.965Z,1007.42
2022-08-09T11:49:28.188Z,1007.38
2022-08-09T11:50:56.316Z,1007.37
2022-08-09T11:52:49.559Z,1007.33
2022-08-09T11:52:56.727Z,1007.37
2022-08-09T11:54:01.375Z,1007.37
2022-08-09T11:54:28.264Z,1007.33
2022-08-09T11:55:34.703Z,1007.30
2022-08-09T11:56:20.687Z,1007.34
2022-08-09T11:57:46.883Z,1007.33
2022-08-09T11:58:30.408Z,1007.29
2022-08-09T11:59:20.650Z,1007.32
2022-08-09T12:00:24.617Z,1007.35
2022-08-09T12:02:15.894Z,1007.32
2022-08-09T12:02:37.401Z,1007.34
2022-08-09T12:03:55.228Z,1007.34
2022-08-09T12:04:28.697Z,1007.33
2022-08-09T12:05:22.949Z,1007.35
2022-08-09T12:06:24.837Z,1007.41
2022-08-09T12:07:20.565Z,1007.35
2022-08-09T12:08:21.643Z,1007.33